createdAt,value
2023-01-26T00:01:52.219Z,143.75
2023-01-26T00:04:19.257Z,136.30
2023-01-26T00:06:47.466Z,137.55
2023-01-26T00:09:16.417Z,142.88
2023-01-26T00:11:44.913Z,156.10
2023-01-26T00:14:12.009Z,128.20
2023-01-26T00:16:39.988Z,147.35
2023-01-26T00:19:06.990Z,151.32
2023-01-26T00:21:33.881Z,148.18
2023-01-26T00:24:01.068Z,141.25
2023-01-26T00:26:30.165Z,143.05
2023-01-26T00:28:59.931Z,151.32
2023-01-26T00:31:30.035Z,140.77
2023-01-26T00:33:59.138Z,146.55
2023-01-26T00:36:26.299Z,151.63
2023-01-26T00:38:53.207Z,145.98
2023-01-26T00:41:39.536Z,165.38
2023-01-26T00:44:07.487Z,152.98
2023-01-26T00:46:35.075Z,159.18
2023-01-26T00:49:02.518Z,153.75
2023-01-26T00:51:29.658Z,162.52
2023-01-26T00:53:59.883Z,157.30
2023-01-26T00:56:28.078Z,157.00
2023-01-26T00:58:55.378Z,157.00
2023-01-26T01:01:23.514Z,150.50
2023-01-26T01:03:53.498Z,151.55
2023-01-26T01:06:20.663Z,151.95
2023-01-26T01:08:47.645Z,154.48
2023-01-26T01:11:15.999Z,160.57
2023-01-26T01:13:43.899Z,172.48
2023-01-26T01:16:15.567Z,176.10
2023-01-26T01:18:43.572Z,153.50
2023-01-26T01:21:15.308Z,160.80
2023-01-26T01:23:42.816Z,160.23
2023-01-26T01:26:11.486Z,158.90
2023-01-26T01:28:41.863Z,153.45
2023-01-26T01:31:13.044Z,155.23
2023-01-26T01:33:41.637Z,159.57
2023-01-26T01:36:12.240Z,144.68
2023-01-26T01:38:40.492Z,156.88
2023-01-26T01:41:09.067Z,140.75
2023-01-26T01:43:37.030Z,147.45
2023-01-26T01:46:10.599Z,153.10
2023-01-26T01:48:56.523Z,152.77
2023-01-26T01:51:35.090Z,143.32
2023-01-26T01:54:09.986Z,144.40
2023-01-26T01:56:44.140Z,142.52
2023-01-26T01:59:13.888Z,131.05
2023-01-26T02:01:41.778Z,137.65
2023-01-26T02:04:11.578Z,138.88
2023-01-26T02:06:56.122Z,144.15
2023-01-26T02:09:47.260Z,143.57
2023-01-26T02:12:20.727Z,108.13
2023-01-26T02:14:52.864Z,141.00
2023-01-26T02:17:21.577Z,135.35
2023-01-26T02:20:12.829Z,133.77
2023-01-26T02:22:54.488Z,113.60
2023-01-26T02:25:53.971Z,124.57
2023-01-26T02:28:30.587Z,137.30
2023-01-26T02:30:59.821Z,119.85
2023-01-26T02:33:30.676Z,136.32
2023-01-26T02:36:04.558Z,143.60
2023-01-26T02:38:44.902Z,145.70
2023-01-26T02:41:36.745Z,130.98
2023-01-26T02:44:05.438Z,129.60
2023-01-26T02:46:33.551Z,128.10
2023-01-26T02:49:19.404Z,130.85
2023-01-26T02:51:47.998Z,142.60
2023-01-26T02:54:38.135Z,127.97
2023-01-26T02:57:05.029Z,122.25
2023-01-26T02:59:32.180Z,140.85
2023-01-26T03:01:59.328Z,138.90
2023-01-26T03:04:26.339Z,131.77
2023-01-26T03:06:53.473Z,126.88
2023-01-26T03:09:20.498Z,124.85
2023-01-26T03:11:48.909Z,125.65
2023-01-26T03:14:17.646Z,128.05
2023-01-26T03:16:44.778Z,120.10
2023-01-26T03:19:38.691Z,124.68
2023-01-26T03:22:29.242Z,116.60
2023-01-26T03:25:15.399Z,125.88
2023-01-26T03:27:47.132Z,104.03
2023-01-26T03:30:19.567Z,121.90
2023-01-26T03:32:53.190Z,116.85
2023-01-26T03:35:23.087Z,114.20
2023-01-26T03:37:54.844Z,125.68
2023-01-26T03:40:59.860Z,118.95
2023-01-26T03:43:45.275Z,124.97
2023-01-26T03:46:30.718Z,110.47
2023-01-26T03:49:16.242Z,112.82
2023-01-26T03:52:03.104Z,102.85
2023-01-26T03:54:51.501Z,113.57
2023-01-26T03:57:21.929Z,101.10
2023-01-26T03:59:49.444Z,108.68
2023-01-26T04:02:41.018Z,112.55
2023-01-26T04:05:29.606Z,110.57
2023-01-26T04:08:27.180Z,109.70
2023-01-26T04:10:57.556Z,95.40
2023-01-26T04:13:45.560Z,97.53
2023-01-26T04:16:46.426Z,89.60
2023-01-26T04:19:32.269Z,100.80
2023-01-26T04:22:00.920Z,96.70
2023-01-26T04:24:29.379Z,83.18
2023-01-26T04:27:03.500Z,100.18
2023-01-26T04:29:39.995Z,96.43
2023-01-26T04:32:08.351Z,95.43
2023-01-26T04:34:37.227Z,101.80
2023-01-26T04:37:16.252Z,84.38
2023-01-26T04:39:46.820Z,91.75
2023-01-26T04:42:15.052Z,91.90
2023-01-26T04:44:42.424Z,95.30
2023-01-26T04:47:12.919Z,84.25
2023-01-26T04:49:40.036Z,87.97
2023-01-26T04:52:07.821Z,83.65
2023-01-26T04:54:39.180Z,93.32
2023-01-26T04:57:08.800Z,89.55
2023-01-26T04:59:38.559Z,87.68
2023-01-26T05:02:08.431Z,92.28
2023-01-26T05:04:35.407Z,83.90
2023-01-26T05:07:02.456Z,85.82
2023-01-26T05:09:29.701Z,86.10
2023-01-26T05:12:34.733Z,90.25
2023-01-26T05:15:33.577Z,84.13
2023-01-26T05:18:24.720Z,93.78
2023-01-26T05:21:04.459Z,87.95
2023-01-26T05:23:40.437Z,100.68
2023-01-26T05:26:24.374Z,89.10
2023-01-26T05:29:07.077Z,89.03
2023-01-26T05:31:34.374Z,90.90
2023-01-26T05:34:02.520Z,94.93
2023-01-26T05:36:31.305Z,85.05
2023-01-26T05:39:00.387Z,88.35
2023-01-26T05:41:27.920Z,86.85
2023-01-26T05:44:18.344Z,83.10
2023-01-26T05:46:53.154Z,90.55
2023-01-26T05:49:26.219Z,83.93
2023-01-26T05:51:55.821Z,86.65
2023-01-26T05:54:27.695Z,84.05
2023-01-26T05:56:57.686Z,80.15
2023-01-26T05:59:26.406Z,77.93
2023-01-26T06:01:57.327Z,73.93
2023-01-26T06:04:26.314Z,66.90
2023-01-26T06:07:00.842Z,66.30
2023-01-26T06:09:33.980Z,67.65
2023-01-26T06:12:31.710Z,64.35
2023-01-26T06:15:04.041Z,64.82
2023-01-26T06:17:40.378Z,68.45
2023-01-26T06:20:14.612Z,53.45
2023-01-26T06:22:47.366Z,57.88
2023-01-26T06:25:17.511Z,56.15
2023-01-26T06:27:44.520Z,58.88
2023-01-26T06:30:21.944Z,57.58
2023-01-26T06:32:51.674Z,57.20
2023-01-26T06:35:18.644Z,58.60
2023-01-26T06:37:50.031Z,54.22
2023-01-26T06:40:20.964Z,57.00
2023-01-26T06:42:50.552Z,59.83
2023-01-26T06:45:20.750Z,52.13
2023-01-26T06:47:51.365Z,53.22
2023-01-26T06:50:22.885Z,56.80
2023-01-26T06:53:00.943Z,57.88
2023-01-26T06:55:41.841Z,56.85
2023-01-26T06:58:27.567Z,54.90
2023-01-26T07:01:27.656Z,67.10
2023-01-26T07:03:56.689Z,61.85
2023-01-26T07:06:28.577Z,62.08
2023-01-26T07:08:56.505Z,55.17
2023-01-26T07:11:25.360Z,54.58
2023-01-26T07:13:53.368Z,50.38
2023-01-26T07:16:20.442Z,50.97
2023-01-26T07:18:48.414Z,55.70
2023-01-26T07:21:19.079Z,50.78
2023-01-26T07:23:47.106Z,49.90
2023-01-26T07:26:14.636Z,50.47
2023-01-26T07:28:43.971Z,49.78
2023-01-26T07:31:12.367Z,50.08
2023-01-26T07:33:39.441Z,52.95
2023-01-26T07:36:06.599Z,50.42
2023-01-26T07:38:34.606Z,44.92
2023-01-26T07:41:06.404Z,52.63
2023-01-26T07:43:34.871Z,57.77
2023-01-26T07:46:05.161Z,51.15
2023-01-26T07:48:34.616Z,53.85
2023-01-26T07:51:04.067Z,59.42
2023-01-26T07:53:34.331Z,57.72
2023-01-26T07:56:12.614Z,56.92
2023-01-26T07:58:41.726Z,54.88
2023-01-26T08:01:14.031Z,62.03
2023-01-26T08:03:41.946Z,65.93
2023-01-26T08:06:11.942Z,56.83
2023-01-26T08:08:41.566Z,70.45
2023-01-26T08:11:09.868Z,66.32
2023-01-26T08:13:36.957Z,68.35
2023-01-26T08:16:12.136Z,64.53
2023-01-26T08:18:41.345Z,67.30
2023-01-26T08:21:12.301Z,67.38
2023-01-26T08:23:40.489Z,71.00
2023-01-26T08:26:10.770Z,78.35
2023-01-26T08:28:37.877Z,61.20
2023-01-26T08:31:27.402Z,66.78
2023-01-26T08:33:56.338Z,63.20
2023-01-26T08:36:24.573Z,73.72
2023-01-26T08:38:54.103Z,68.25
2023-01-26T08:41:25.506Z,63.92
2023-01-26T08:43:53.027Z,63.08
2023-01-26T08:46:20.113Z,59.03
2023-01-26T08:48:50.529Z,72.57
2023-01-26T08:51:17.559Z,66.15
2023-01-26T08:53:45.552Z,75.32
2023-01-26T08:56:14.817Z,56.67
2023-01-26T08:58:42.848Z,63.97
2023-01-26T09:01:15.464Z,59.13
2023-01-26T09:06:12.138Z,52.08
2023-01-26T09:08:40.198Z,63.53
2023-01-26T09:11:09.377Z,59.67
2023-01-26T09:13:39.696Z,58.45
2023-01-26T09:16:08.496Z,58.00
2023-01-26T09:18:36.273Z,64.20
2023-01-26T09:21:08.357Z,55.53
2023-01-26T09:23:36.175Z,64.68
2023-01-26T09:26:04.022Z,56.92
2023-01-26T09:28:30.992Z,54.17
2023-01-26T09:30:58.138Z,52.25
2023-01-26T09:33:26.825Z,54.40
2023-01-26T09:35:53.989Z,48.53
2023-01-26T09:38:22.003Z,49.75
2023-01-26T09:41:30.676Z,50.47
2023-01-26T09:44:23.965Z,44.85
2023-01-26T09:47:04.410Z,39.33
2023-01-26T09:49:50.299Z,37.08
2023-01-26T09:52:51.869Z,39.15
2023-01-26T09:55:22.213Z,37.30
2023-01-26T09:58:25.495Z,37.10
2023-01-26T10:00:59.215Z,30.08
2023-01-26T10:03:39.780Z,31.23
2023-01-26T10:06:21.859Z,32.65
2023-01-26T10:09:26.840Z,36.35
2023-01-26T10:11:58.648Z,36.10
2023-01-26T10:14:40.928Z,35.17
2023-01-26T10:17:19.764Z,37.75
2023-01-26T10:19:52.568Z,36.47
2023-01-26T10:22:23.565Z,39.53
2023-01-26T10:24:53.214Z,39.13
2023-01-26T10:27:21.233Z,51.28
2023-01-26T10:29:48.335Z,44.67
2023-01-26T10:32:18.972Z,42.10
2023-01-26T10:34:48.488Z,49.03
2023-01-26T10:37:22.955Z,46.75
2023-01-26T10:40:09.719Z,47.33
2023-01-26T10:42:39.260Z,43.78
2023-01-26T10:45:24.254Z,49.30
2023-01-26T10:48:26.722Z,42.67
2023-01-26T10:50:55.435Z,53.47
2023-01-26T10:53:29.603Z,52.35
2023-01-26T10:56:04.684Z,54.53
2023-01-26T10:58:47.868Z,54.42
2023-01-26T11:01:18.978Z,53.67
2023-01-26T11:04:07.586Z,55.60
2023-01-26T11:06:35.565Z,59.28
2023-01-26T11:09:15.541Z,55.08
2023-01-26T11:11:54.393Z,53.03
2023-01-26T11:14:21.525Z,59.33
2023-01-26T11:17:20.945Z,56.97
2023-01-26T11:19:56.917Z,61.00
2023-01-26T11:22:52.047Z,63.92
2023-01-26T11:25:24.831Z,64.00
2023-01-26T11:28:31.475Z,68.55
2023-01-26T11:31:19.911Z,85.32
2023-01-26T11:34:22.235Z,75.60
2023-01-26T11:37:19.559Z,80.78
2023-01-26T11:40:16.145Z,76.82
2023-01-26T11:42:57.930Z,76.55
2023-01-26T11:45:50.006Z,78.45
2023-01-26T11:48:45.288Z,78.20
2023-01-26T11:51:25.476Z,61.20
2023-01-26T11:53:56.282Z,78.03
2023-01-26T11:56:58.220Z,69.00
2023-01-26T11:59:36.630Z,63.08
2023-01-26T12:02:30.140Z,75.10
2023-01-26T12:07:56.425Z,85.22
2023-01-26T12:10:36.586Z,73.32
2023-01-26T12:13:31.238Z,80.85
2023-01-26T12:16:09.186Z,94.38
2023-01-26T12:19:12.819Z,75.80
2023-01-26T12:21:46.189Z,80.78
2023-01-26T12:25:01.141Z,72.95
2023-01-26T12:27:40.492Z,84.20
2023-01-26T12:30:31.703Z,84.28
2023-01-26T12:33:48.620Z,83.15
2023-01-26T12:36:55.572Z,80.40
2023-01-26T12:39:42.560Z,76.68
2023-01-26T12:42:43.207Z,83.78
2023-01-26T12:45:29.933Z,88.93
2023-01-26T12:48:10.648Z,88.60
2023-01-26T12:50:57.469Z,84.35
2023-01-26T12:53:47.374Z,84.72
2023-01-26T12:56:33.089Z,92.72
2023-01-26T13:01:41.524Z,80.18
2023-01-26T13:04:20.297Z,63.50
2023-01-26T13:07:39.155Z,73.68
2023-01-26T13:10:19.458Z,75.03
2023-01-26T13:12:56.149Z,74.45
2023-01-26T13:15:29.533Z,67.55
2023-01-26T13:18:41.964Z,56.50
2023-01-26T13:21:17.856Z,53.58
2023-01-26T13:23:46.191Z,51.88
2023-01-26T13:26:33.067Z,51.67
2023-01-26T13:29:33.841Z,38.53
2023-01-26T13:32:45.196Z,42.20
2023-01-26T13:35:23.358Z,48.03
2023-01-26T13:38:10.636Z,34.13
2023-01-26T13:40:51.372Z,33.15
2023-01-26T13:43:27.215Z,36.75
2023-01-26T13:46:28.534Z,38.10
2023-01-26T13:49:02.519Z,36.67
2023-01-26T13:51:33.498Z,32.40
2023-01-26T13:54:07.171Z,41.40
2023-01-26T13:56:37.568Z,39.08
2023-01-26T13:59:27.871Z,36.90
2023-01-26T14:02:00.017Z,29.38
2023-01-26T14:04:35.776Z,25.75
2023-01-26T14:07:35.238Z,28.85
2023-01-26T14:10:06.419Z,25.13
2023-01-26T14:12:41.342Z,28.52
2023-01-26T14:15:25.483Z,24.55
2023-01-26T14:18:03.270Z,23.35
2023-01-26T14:20:39.691Z,33.65
2023-01-26T14:23:19.683Z,28.30
2023-01-26T14:26:01.248Z,25.90
2023-01-26T14:28:39.217Z,29.17
2023-01-26T14:31:22.926Z,25.30
2023-01-26T14:33:57.901Z,24.20
2023-01-26T14:36:32.447Z,21.65
2023-01-26T14:39:02.655Z,24.98
2023-01-26T14:41:33.845Z,34.97
2023-01-26T14:44:04.311Z,30.75
2023-01-26T14:46:47.413Z,25.08
2023-01-26T14:49:22.035Z,26.58
2023-01-26T14:51:57.521Z,25.88
2023-01-26T14:54:34.226Z,27.38
2023-01-26T14:57:01.780Z,22.55
2023-01-26T14:59:37.654Z,23.25
2023-01-26T15:02:25.849Z,27.77
2023-01-26T15:05:09.893Z,25.17
2023-01-26T15:07:46.002Z,24.27
2023-01-26T15:10:43.965Z,34.88
2023-01-26T15:13:15.651Z,27.90
2023-01-26T15:16:01.670Z,27.33
2023-01-26T15:18:32.943Z,30.75
2023-01-26T15:21:12.503Z,30.75
2023-01-26T15:23:46.571Z,34.22
2023-01-26T15:26:30.192Z,34.20
2023-01-26T15:28:59.529Z,25.65
2023-01-26T15:31:36.107Z,29.35
2023-01-26T15:34:06.827Z,26.58
2023-01-26T15:36:49.760Z,22.58
2023-01-26T15:42:17.766Z,31.35
2023-01-26T15:44:46.076Z,26.45
2023-01-26T15:47:14.249Z,29.27
2023-01-26T15:49:44.102Z,19.27
2023-01-26T15:52:14.803Z,24.35
2023-01-26T15:54:47.999Z,26.17
2023-01-26T15:57:15.536Z,21.30
2023-01-26T15:59:46.052Z,23.27
2023-01-26T16:02:29.234Z,26.70
2023-01-26T16:04:56.252Z,28.13
2023-01-26T16:07:24.792Z,27.83
2023-01-26T16:09:53.718Z,35.58
2023-01-26T16:12:36.739Z,18.52
2023-01-26T16:15:37.215Z,30.02
2023-01-26T16:18:05.421Z,26.05
2023-01-26T16:20:33.242Z,30.95
2023-01-26T16:23:00.868Z,23.05
2023-01-26T16:25:32.086Z,24.73
2023-01-26T16:27:59.913Z,17.60
2023-01-26T16:30:27.460Z,19.05
2023-01-26T16:32:55.589Z,24.45
2023-01-26T16:35:23.865Z,20.10
2023-01-26T16:37:52.961Z,27.27
2023-01-26T16:40:20.042Z,19.80
2023-01-26T16:42:53.947Z,15.73
2023-01-26T16:45:26.957Z,14.10
2023-01-26T16:47:58.051Z,16.92
2023-01-26T16:50:27.001Z,16.00
2023-01-26T16:52:54.073Z,16.48
2023-01-26T16:55:23.564Z,20.17
2023-01-26T17:00:33.899Z,20.95
2023-01-26T17:03:00.900Z,23.50
2023-01-26T17:05:31.206Z,18.00
2023-01-26T17:08:03.725Z,21.92
2023-01-26T17:10:32.569Z,20.65
2023-01-26T17:13:02.183Z,19.88
2023-01-26T17:15:29.639Z,14.55
2023-01-26T17:17:58.138Z,14.60
2023-01-26T17:20:25.688Z,16.23
2023-01-26T17:22:56.821Z,15.85
2023-01-26T17:25:26.320Z,14.55
2023-01-26T17:27:55.433Z,16.67
2023-01-26T17:30:23.011Z,13.75
2023-01-26T17:32:53.421Z,20.63
2023-01-26T17:35:22.704Z,21.38
2023-01-26T17:37:53.387Z,22.75
2023-01-26T17:40:21.673Z,17.73
2023-01-26T17:42:49.724Z,20.92
2023-01-26T17:45:18.948Z,21.98
2023-01-26T17:47:46.012Z,22.20
2023-01-26T17:50:14.092Z,10.63
2023-01-26T17:52:46.077Z,14.75
2023-01-26T17:55:14.366Z,18.80
2023-01-26T17:57:44.535Z,14.70
2023-01-26T18:00:14.962Z,16.15
2023-01-26T18:02:46.195Z,16.63
2023-01-26T18:05:14.005Z,16.98
2023-01-26T18:07:43.400Z,20.05
2023-01-26T18:10:11.996Z,17.40
2023-01-26T18:12:40.284Z,22.10
2023-01-26T18:15:11.074Z,16.77
2023-01-26T18:17:41.195Z,15.00
2023-01-26T18:20:10.782Z,16.92
2023-01-26T18:25:25.148Z,12.43
2023-01-26T18:27:52.539Z,18.23
2023-01-26T18:30:19.691Z,13.25
2023-01-26T18:32:47.793Z,14.18
2023-01-26T18:35:24.791Z,11.90
2023-01-26T18:37:51.829Z,11.10
2023-01-26T18:40:19.134Z,14.60
2023-01-26T18:42:47.603Z,15.80
2023-01-26T18:45:14.772Z,12.75
2023-01-26T18:47:42.001Z,12.45
2023-01-26T18:50:10.947Z,13.88
2023-01-26T18:52:40.802Z,12.85
2023-01-26T18:55:12.649Z,24.42
2023-01-26T18:57:40.223Z,14.98
2023-01-26T19:00:09.126Z,12.82
2023-01-26T19:02:39.353Z,15.73
2023-01-26T19:05:14.866Z,19.52
2023-01-26T19:07:42.532Z,16.65
2023-01-26T19:10:10.021Z,19.27
2023-01-26T19:12:37.685Z,18.38
2023-01-26T19:15:11.110Z,13.88
2023-01-26T19:17:41.761Z,15.18
2023-01-26T19:20:14.069Z,20.25
2023-01-26T19:22:46.257Z,13.43
2023-01-26T19:25:13.722Z,12.40
2023-01-26T19:27:41.745Z,17.58
2023-01-26T19:30:13.302Z,18.75
2023-01-26T19:33:04.993Z,13.13
2023-01-26T19:35:36.143Z,12.50
2023-01-26T19:40:37.500Z,10.23
2023-01-26T19:43:06.704Z,13.95
2023-01-26T19:45:34.995Z,11.00
2023-01-26T19:48:03.971Z,12.55
2023-01-26T19:50:32.565Z,15.20
2023-01-26T19:52:59.732Z,8.52
2023-01-26T19:55:26.653Z,17.10
2023-01-26T19:57:53.745Z,15.60
2023-01-26T20:00:24.333Z,11.13
2023-01-26T20:02:53.376Z,12.13
2023-01-26T20:05:22.852Z,9.38
2023-01-26T20:07:52.216Z,13.30
2023-01-26T20:10:20.178Z,9.57
2023-01-26T20:12:50.203Z,13.05
2023-01-26T20:15:21.319Z,10.77
2023-01-26T20:17:55.679Z,16.42
2023-01-26T20:20:23.734Z,11.07
2023-01-26T20:22:51.312Z,14.98
2023-01-26T20:25:18.424Z,12.15
2023-01-26T20:27:50.323Z,11.82
2023-01-26T20:30:17.782Z,9.75
2023-01-26T20:32:52.583Z,13.05
2023-01-26T20:35:20.052Z,12.23
2023-01-26T20:37:49.589Z,17.67
2023-01-26T20:40:18.086Z,17.75
2023-01-26T20:42:45.953Z,17.33
2023-01-26T20:45:15.383Z,13.88
2023-01-26T20:47:47.980Z,18.13
2023-01-26T20:50:21.489Z,17.02
2023-01-26T20:52:56.197Z,17.92
2023-01-26T20:55:24.271Z,11.35
2023-01-26T20:57:52.767Z,11.77
2023-01-26T21:00:21.559Z,18.45
2023-01-26T21:02:50.921Z,13.18
2023-01-26T21:05:19.813Z,11.38
2023-01-26T21:07:48.211Z,13.40
2023-01-26T21:10:16.864Z,13.55
2023-01-26T21:12:45.612Z,10.88
2023-01-26T21:15:13.020Z,10.80
2023-01-26T21:17:40.717Z,15.75
2023-01-26T21:20:10.654Z,14.38
2023-01-26T21:22:38.962Z,16.58
2023-01-26T21:25:07.901Z,19.98
2023-01-26T21:27:36.965Z,12.50
2023-01-26T21:30:07.725Z,16.27
2023-01-26T21:32:38.594Z,14.88
2023-01-26T21:35:06.175Z,15.68
2023-01-26T21:37:34.744Z,15.80
2023-01-26T21:40:04.212Z,13.77
2023-01-26T21:42:34.377Z,21.05
2023-01-26T21:45:19.832Z,14.30
2023-01-26T21:48:06.943Z,15.70
2023-01-26T21:50:55.867Z,20.73
2023-01-26T21:53:27.402Z,14.77
2023-01-26T21:55:55.336Z,19.13
2023-01-26T21:58:43.224Z,13.80
2023-01-26T22:01:14.373Z,16.20
2023-01-26T22:03:42.367Z,14.93
2023-01-26T22:06:11.474Z,13.23
2023-01-26T22:08:40.993Z,15.48
2023-01-26T22:11:08.001Z,13.50
2023-01-26T22:13:37.187Z,15.90
2023-01-26T22:16:05.639Z,16.30
2023-01-26T22:18:32.630Z,17.95
2023-01-26T22:21:06.010Z,15.05
2023-01-26T22:23:36.458Z,13.68
2023-01-26T22:26:13.212Z,16.35
2023-01-26T22:28:40.989Z,18.10
2023-01-26T22:31:10.378Z,14.13
2023-01-26T22:33:40.193Z,22.25
2023-01-26T22:36:11.860Z,13.25
2023-01-26T22:38:40.059Z,18.03
2023-01-26T22:41:15.054Z,12.98
2023-01-26T22:43:42.994Z,11.27
2023-01-26T22:46:11.714Z,18.98
2023-01-26T22:48:39.383Z,18.38
2023-01-26T22:51:18.144Z,14.18
2023-01-26T22:53:52.695Z,17.77
2023-01-26T22:56:20.933Z,11.75
2023-01-26T22:58:58.584Z,18.33
2023-01-26T23:01:31.830Z,18.60
2023-01-26T23:04:02.017Z,21.58
2023-01-26T23:06:31.186Z,21.95
2023-01-26T23:09:01.158Z,18.70
2023-01-26T23:11:31.208Z,20.05
2023-01-26T23:14:03.101Z,15.13
2023-01-26T23:16:33.691Z,11.77
2023-01-26T23:19:00.798Z,19.77
2023-01-26T23:21:28.634Z,19.05
2023-01-26T23:23:55.796Z,20.63
2023-01-26T23:26:23.818Z,23.58
2023-01-26T23:28:50.989Z,21.55
2023-01-26T23:31:19.247Z,18.13
2023-01-26T23:33:47.824Z,21.55
2023-01-26T23:36:16.189Z,24.20
2023-01-26T23:38:45.626Z,22.88
2023-01-26T23:41:15.278Z,18.38
2023-01-26T23:43:43.546Z,18.45
2023-01-26T23:46:11.978Z,16.00
2023-01-26T23:48:40.772Z,21.65
2023-01-26T23:51:11.595Z,17.60
2023-01-26T23:53:39.868Z,15.20
2023-01-26T23:56:10.319Z,11.15
2023-01-26T23:58:37.740Z,13.75
